Terminal Aerodrome Forecast
Issued by NWS

Home | Current Version | Previous Version | Text Only | Print | Product List | Glossary On
Versions: 1 2 3 4 5 6 7 8 9 10 11 12 13 14
000
FTUS46 KSEW 051140
TAFOLM
TAF
KOLM 051140Z 0512/0612 22005KT P6SM VCSH BKN008 OVC100
     FM051300 18006KT 4SM -SHRA BR BKN015 OVC050
      TEMPO 0513/0517 2SM -SHRASN BR OVC007
     FM051900 20004KT 4SM -SHRA BR OVC015
     FM052300 18006KT P6SM SCT020 OVC035
      TEMPO 0600/0604 5SM -SN BKN010 OVC030
     FM060900 05006KT P6SM SCT030 BKN080=

USA.gov is the U.S. government's official web portal to all federal, state and local government web resources and services.